Time;durP1;ratioP1;P1;durP2;ratioP2;P2;SDS_P1;SDS_P2;PMS_P1;PMS_P2;Temp;Humidity;BMP_temperature;BMP_pressure;BME280_temperature;BME280_humidity;BME280_pressure;Samples;Min_cycle;Max_cycle;Signal;HPM_P1;HPM_P2
2022/08/19 00:00:01;;;;;;;8.50;7.70;;;;;;;23.10;64.67;100856.13;4979821;28;20411;-75
2022/08/19 00:02:26;;;;;;;10.50;9.50;;;;;;;22.41;66.10;100864.97;4980228;28;20239;-72
2022/08/19 00:04:55;;;;;;;11.13;9.80;;;;;;;22.95;64.63;100854.91;4979433;28;20235;-74
2022/08/19 00:07:20;;;;;;;11.17;10.07;;;;;;;22.96;64.30;100851.34;4979752;28;20176;-75
2022/08/19 00:09:46;;;;;;;11.83;8.93;;;;;;;23.34;63.82;100838.28;4980668;28;20730;-75
2022/08/19 00:12:11;;;;;;;11.50;10.10;;;;;;;23.57;62.24;100839.09;4979860;28;20204;-74
2022/08/19 00:14:38;;;;;;;16.87;15.30;;;;;;;23.15;63.20;100832.88;4979594;28;20296;-75
2022/08/19 00:17:04;;;;;;;10.93;9.93;;;;;;;23.49;62.90;100834.97;4979478;28;20354;-73
2022/08/19 00:19:30;;;;;;;11.87;10.77;;;;;;;23.29;63.27;100841.13;4979450;28;20718;-77
2022/08/19 00:21:56;;;;;;;12.87;11.57;;;;;;;22.81;63.88;100832.44;4962920;28;20929;-74
2022/08/19 00:24:22;;;;;;;10.27;9.37;;;;;;;23.35;63.14;100835.56;4979474;28;20543;-70
2022/08/19 00:26:47;;;;;;;12.03;9.97;;;;;;;23.15;63.77;100840.84;4979363;28;20530;-70
2022/08/19 00:29:15;;;;;;;11.20;10.20;;;;;;;23.30;63.20;100852.63;4979982;28;20462;-70
2022/08/19 00:31:42;;;;;;;13.63;11.50;;;;;;;23.36;63.30;100844.41;4979412;28;20176;-70
2022/08/19 00:34:07;;;;;;;13.60;12.23;;;;;;;22.96;64.73;100846.00;4979556;28;20412;-70
2022/08/19 00:36:33;;;;;;;16.97;15.13;;;;;;;23.17;63.94;100839.84;4979637;28;20723;-70
2022/08/19 00:38:59;;;;;;;15.53;14.03;;;;;;;22.71;65.08;100839.88;4979411;28;20187;-70
2022/08/19 00:41:24;;;;;;;13.20;11.83;;;;;;;23.63;62.99;100830.84;4979542;28;20263;-70
2022/08/19 00:43:59;;;;;;;17.53;15.77;;;;;;;23.29;63.28;100825.19;4979685;28;20196;-69
2022/08/19 00:46:24;;;;;;;17.03;15.37;;;;;;;22.91;65.16;100824.06;4979123;28;20172;-68
2022/08/19 00:48:49;;;;;;;21.40;19.10;;;;;;;23.05;63.91;100830.53;4979167;28;20507;-70
2022/08/19 00:51:15;;;;;;;20.00;17.87;;;;;;;23.17;63.57;100829.22;4979533;28;20172;-68
2022/08/19 00:53:40;;;;;;;24.77;21.83;;;;;;;23.11;63.74;100826.78;4978356;28;20172;-69
2022/08/19 00:56:06;;;;;;;23.67;18.80;;;;;;;23.03;64.13;100819.13;4978932;28;20164;-69
2022/08/19 00:58:33;;;;;;;19.57;17.60;;;;;;;23.29;63.83;100811.88;4979750;28;20199;-69
2022/08/19 01:01:00;;;;;;;23.90;21.17;;;;;;;23.21;63.65;100812.19;4979119;28;20427;-69
2022/08/19 01:03:25;;;;;;;25.03;22.03;;;;;;;23.12;64.45;100823.19;4978997;28;20745;-68
2022/08/19 01:05:51;;;;;;;25.10;21.10;;;;;;;23.37;63.20;100819.53;4979427;28;20492;-69
2022/08/19 01:08:18;;;;;;;23.23;20.80;;;;;;;22.74;65.40;100820.28;4979041;28;20176;-68
2022/08/19 01:10:50;;;;;;;21.70;19.50;;;;;;;22.50;66.42;100824.78;4978902;28;20435;-68
2022/08/19 01:13:19;;;;;;;22.13;19.83;;;;;;;22.75;65.89;100819.38;4979717;28;20498;-69
2022/08/19 01:15:57;;;;;;;24.40;22.00;;;;;;;22.99;64.84;100828.16;4977888;28;20427;-69
2022/08/19 01:18:24;;;;;;;29.03;25.93;;;;;;;23.25;63.67;100820.91;4962300;28;20518;-69
2022/08/19 01:20:50;;;;;;;25.13;22.60;;;;;;;23.45;63.52;100811.22;4978766;28;20486;-70
2022/08/19 01:23:16;;;;;;;23.00;20.40;;;;;;;22.92;65.59;100815.16;4978960;28;20424;-69
2022/08/19 01:25:51;;;;;;;25.53;21.47;;;;;;;22.73;64.50;100815.03;4978906;28;20485;-68
2022/08/19 01:28:22;;;;;;;20.67;18.57;;;;;;;23.20;64.60;100815.81;4978936;28;20271;-69
2022/08/19 01:30:48;;;;;;;22.00;19.80;;;;;;;23.25;63.66;100812.09;4978755;28;20471;-69
2022/08/19 01:33:14;;;;;;;24.90;22.37;;;;;;;22.94;64.62;100813.31;4978901;28;20470;-69
2022/08/19 01:35:40;;;;;;;20.87;18.63;;;;;;;22.72;65.94;100808.88;4978691;28;20243;-69
2022/08/19 01:38:08;;;;;;;20.73;18.50;;;;;;;22.41;66.34;100814.50;4946519;28;20281;-69
2022/08/19 01:40:35;;;;;;;20.43;18.43;;;;;;;23.09;65.00;100812.69;4978840;28;20821;-69
2022/08/19 01:43:01;;;;;;;21.47;19.37;;;;;;;22.86;65.02;100800.34;4978822;28;20478;-69
2022/08/19 01:45:28;;;;;;;20.73;18.50;;;;;;;23.09;65.03;100791.41;4979090;28;20510;-69
2022/08/19 01:47:54;;;;;;;23.20;18.00;;;;;;;23.24;63.71;100795.25;4978636;28;20444;-69
2022/08/19 01:50:20;;;;;;;20.10;18.23;;;;;;;23.07;64.28;100792.41;4961942;28;20420;-69
2022/08/19 01:52:46;;;;;;;19.83;17.73;;;;;;;23.22;64.41;100789.16;4979109;28;20652;-69
2022/08/19 01:55:16;;;;;;;18.17;16.37;;;;;;;23.78;62.82;100778.75;4978336;28;20191;-69
2022/08/19 01:57:46;;;;;;;21.60;19.30;;;;;;;23.25;64.18;100781.03;4978596;28;20518;-68
2022/08/19 02:00:15;;;;;;;22.30;20.10;;;;;;;23.24;65.06;100783.75;4978681;28;20435;-68
2022/08/19 02:02:41;;;;;;;22.53;19.87;;;;;;;22.83;66.08;100793.34;4961794;28;20443;-68
2022/08/19 02:05:08;;;;;;;24.53;21.93;;;;;;;22.66;66.68;100795.81;4981320;28;20448;-67
2022/08/19 02:07:34;;;;;;;21.10;18.93;;;;;;;22.97;65.81;100794.59;4981990;28;20223;-68
2022/08/19 02:10:03;;;;;;;23.53;21.03;;;;;;;22.61;66.96;100790.72;4981898;28;20762;-68
2022/08/19 02:12:29;;;;;;;26.67;20.83;;;;;;;23.29;65.13;100793.25;4982285;28;20467;-68
2022/08/19 02:14:54;;;;;;;23.20;20.70;;;;;;;23.02;66.13;100784.63;4981815;28;20461;-68
2022/08/19 02:17:20;;;;;;;23.73;20.23;;;;;;;23.35;64.67;100779.72;4981699;28;20605;-68
2022/08/19 02:19:45;;;;;;;21.77;19.23;;;;;;;23.27;65.33;100767.66;4982264;28;20537;-68
2022/08/19 02:22:10;;;;;;;26.53;23.27;;;;;;;23.02;65.60;100763.34;4981659;28;20187;-68
2022/08/19 02:24:36;;;;;;;24.27;19.50;;;;;;;22.77;66.75;100761.72;4981640;28;20212;-68
2022/08/19 02:27:01;;;;;;;26.70;20.40;;;;;;;21.95;70.54;100762.22;4981788;28;20593;-68
2022/08/19 02:29:27;;;;;;;19.20;16.93;;;;;;;22.06;70.13;100756.50;4981576;28;20251;-68
2022/08/19 02:31:52;;;;;;;28.67;21.83;;;;;;;22.10;69.65;100751.94;4981660;28;20196;-68
2022/08/19 02:34:18;;;;;;;29.03;21.87;;;;;;;22.09;70.09;100756.38;4982067;28;20173;-68
2022/08/19 02:36:43;;;;;;;25.13;18.77;;;;;;;23.16;67.31;100755.66;4981361;28;20263;-68
2022/08/19 02:39:09;;;;;;;25.50;21.93;;;;;;;23.14;66.34;100770.00;4981388;28;20180;-69
2022/08/19 02:41:35;;;;;;;28.90;22.40;;;;;;;22.37;69.18;100777.44;4981791;28;20169;-68
2022/08/19 02:44:01;;;;;;;28.80;22.43;;;;;;;22.06;70.76;100780.41;4981341;28;20451;-68
2022/08/19 02:46:29;;;;;;;28.70;22.33;;;;;;;22.07;70.96;100778.59;4981312;28;20538;-68
2022/08/19 02:49:00;;;;;;;27.20;22.47;;;;;;;21.86;70.88;100776.69;4981978;28;20661;-69
2022/08/19 02:51:29;;;;;;;28.70;22.00;;;;;;;22.29;69.44;100768.88;4981180;28;20415;-69
2022/08/19 02:53:54;;;;;;;34.57;23.80;;;;;;;22.46;68.64;100770.94;4981274;28;20851;-69
2022/08/19 02:56:20;;;;;;;41.00;26.70;;;;;;;22.81;67.34;100765.09;4981488;28;20420;-69
2022/08/19 02:58:46;;;;;;;28.70;21.97;;;;;;;22.81;67.77;100771.31;4980863;28;20172;-68
2022/08/19 03:01:39;;;;;;;26.10;22.77;;;;;;;22.47;68.39;100767.31;4981175;28;20558;-69
2022/08/19 03:04:05;;;;;;;35.80;26.30;;;;;;;22.56;68.71;100767.91;4980978;28;20467;-69
2022/08/19 03:06:31;;;;;;;35.83;25.20;;;;;;;22.33;69.36;100772.31;4981062;28;20436;-68
2022/08/19 03:08:56;;;;;;;39.70;27.37;;;;;;;22.48;68.72;100774.38;4981013;28;20420;-68
2022/08/19 03:11:25;;;;;;;43.87;28.40;;;;;;;22.49;68.65;100781.44;4980861;28;20542;-69
2022/08/19 03:13:51;;;;;;;41.07;28.33;;;;;;;22.76;68.02;100778.59;4981318;28;20172;-69
2022/08/19 03:16:18;;;;;;;42.27;29.70;;;;;;;22.26;69.97;100784.06;4979756;28;20563;-69
2022/08/19 03:18:43;;;;;;;44.23;28.80;;;;;;;22.19;69.75;100779.00;4980810;28;20467;-68
2022/08/19 03:21:10;;;;;;;47.90;30.80;;;;;;;22.23;70.99;100776.22;4981305;28;20416;-68
2022/08/19 03:23:35;;;;;;;42.40;28.47;;;;;;;22.42;69.66;100777.28;4963852;28;20554;-68
2022/08/19 03:26:04;;;;;;;41.43;30.87;;;;;;;22.66;68.88;100777.22;4980270;28;20470;-69
2022/08/19 03:28:30;;;;;;;37.07;26.37;;;;;;;22.32;70.08;100776.72;4981129;28;20173;-68
2022/08/19 03:31:14;;;;;;;40.67;27.27;;;;;;;22.47;70.00;100777.94;4980503;28;20697;-69
2022/08/19 03:33:40;;;;;;;34.40;26.07;;;;;;;22.75;69.32;100787.47;4980653;28;20459;-67
2022/08/19 03:36:14;;;;;;;38.70;28.30;;;;;;;22.03;69.95;100788.47;4980320;28;20770;-68
2022/08/19 03:38:48;;;;;;;40.50;28.80;;;;;;;22.45;69.79;100786.94;4980447;28;20190;-68
2022/08/19 03:41:17;;;;;;;34.00;29.27;;;;;;;22.88;67.83;100783.41;4980473;28;20431;-67
2022/08/19 03:43:44;;;;;;;37.03;27.40;;;;;;;22.70;69.26;100787.69;4980262;28;20813;-68
2022/08/19 03:46:13;;;;;;;38.53;26.50;;;;;;;22.84;69.09;100792.44;4980502;28;20809;-68
2022/08/19 03:48:40;;;;;;;37.67;27.67;;;;;;;22.26;70.70;100792.03;4980140;28;20869;-68
2022/08/19 03:51:06;;;;;;;33.90;25.83;;;;;;;22.65;68.71;100786.13;4980770;28;20487;-68
2022/08/19 03:53:33;;;;;;;37.50;28.00;;;;;;;22.26;70.92;100792.91;4979463;28;20452;-68
2022/08/19 03:56:01;;;;;;;40.00;28.77;;;;;;;22.65;69.73;100794.09;4979871;28;20522;-68
2022/08/19 03:58:29;;;;;;;36.07;28.20;;;;;;;22.19;69.86;100794.94;4980623;28;20419;-68
2022/08/19 04:00:57;;;;;;;32.70;25.80;;;;;;;22.15;71.26;100795.09;4979907;28;20864;-68
2022/08/19 04:03:24;;;;;;;39.50;30.00;;;;;;;22.18;71.96;100798.50;4979940;28;20911;-67
2022/08/19 04:05:49;;;;;;;44.13;27.37;;;;;;;21.94;72.07;100797.63;4980141;28;20506;-67
2022/08/19 04:08:18;;;;;;;45.23;30.27;;;;;;;22.42;70.60;100800.31;4979900;28;20460;-68
2022/08/19 04:10:43;;;;;;;38.10;28.70;;;;;;;22.58;70.09;100800.59;4979784;28;20263;-68
2022/08/19 04:13:09;;;;;;;40.70;28.70;;;;;;;22.37;70.35;100805.81;4980421;28;20400;-68
2022/08/19 04:15:41;;;;;;;39.27;28.90;;;;;;;21.99;72.22;100808.09;4979367;28;20175;-68
2022/08/19 04:18:08;;;;;;;39.60;24.77;;;;;;;22.72;70.29;100800.91;4979690;28;20207;-70
2022/08/19 04:20:39;;;;;;;41.87;28.70;;;;;;;22.58;69.22;100817.38;4980361;28;20516;-69
2022/08/19 04:23:04;;;;;;;30.83;24.93;;;;;;;22.86;68.87;100816.28;4979687;28;20423;-69
2022/08/19 04:25:35;;;;;;;36.30;29.50;;;;;;;22.42;70.18;100824.22;4979450;28;20474;-69
2022/08/19 04:28:01;;;;;;;35.17;28.37;;;;;;;22.50;69.82;100819.47;4979241;28;20180;-68
2022/08/19 04:30:26;;;;;;;39.20;27.20;;;;;;;23.15;67.65;100832.88;4979623;28;20510;-69
2022/08/19 04:32:51;;;;;;;31.97;26.90;;;;;;;22.82;68.13;100826.16;4979997;28;20237;-69
2022/08/19 04:35:17;;;;;;;28.23;23.53;;;;;;;22.10;70.62;100836.91;4979225;28;20199;-69
2022/08/19 04:37:42;;;;;;;28.20;25.13;;;;;;;21.81;71.74;100842.34;4979333;28;20173;-69
2022/08/19 04:42:53;;;;;;;29.40;26.07;;;;;;;21.78;72.69;100845.09;4979372;28;20191;-69
2022/08/19 04:45:19;;;;;;;30.70;24.97;;;;;;;21.65;73.17;100843.78;4979279;28;20459;-69
2022/08/19 04:47:44;;;;;;;29.10;23.57;;;;;;;22.39;70.42;100846.44;4979123;28;20425;-69
2022/08/19 04:50:11;;;;;;;27.93;24.93;;;;;;;21.60;72.39;100849.28;4979261;28;20226;-69
2022/08/19 04:52:37;;;;;;;28.40;22.60;;;;;;;22.01;71.66;100848.72;4979600;28;20195;-69
2022/08/19 04:55:04;;;;;;;23.20;19.20;;;;;;;22.56;69.66;100847.63;4979046;28;20489;-68
2022/08/19 04:57:30;;;;;;;28.57;23.20;;;;;;;21.66;72.99;100853.50;4979129;28;20519;-71
2022/08/19 04:59:55;;;;;;;26.17;21.47;;;;;;;21.81;72.07;100850.31;4979819;28;20472;-69
2022/08/19 05:02:25;;;;;;;27.40;21.50;;;;;;;22.22;71.04;100852.38;4979120;28;20180;-69
2022/08/19 05:04:56;;;;;;;28.67;21.43;;;;;;;22.05;71.21;100847.69;4978981;28;20480;-68
2022/08/19 05:07:21;;;;;;;23.97;20.57;;;;;;;22.50;69.65;100846.94;4978407;28;20423;-69
2022/08/19 05:09:47;;;;;;;27.93;21.50;;;;;;;22.33;69.17;100851.97;4979061;28;20831;-69
2022/08/19 05:12:12;;;;;;;23.90;21.20;;;;;;;22.17;70.14;100857.84;4979323;28;20502;-69
2022/08/19 05:14:37;;;;;;;28.27;22.80;;;;;;;22.55;68.57;100860.00;4979016;28;20180;-69
2022/08/19 05:17:03;;;;;;;27.90;21.80;;;;;;;22.56;68.65;100856.44;4978798;28;20223;-68
2022/08/19 05:24:56;;;;;;;23.77;18.90;;;;;;;22.68;68.73;100855.97;4979078;28;20533;-68
2022/08/19 05:27:21;;;;;;;27.27;21.70;;;;;;;22.91;67.32;100856.84;4978780;28;20424;-70
2022/08/19 05:29:47;;;;;;;20.93;18.50;;;;;;;22.58;68.08;100861.69;4978747;28;20176;-69
2022/08/19 05:32:12;;;;;;;24.67;19.03;;;;;;;21.82;71.08;100869.75;4979129;28;20183;-70
2022/08/19 05:34:38;;;;;;;20.00;17.70;;;;;;;21.98;70.75;100868.28;4978718;28;20176;-69
2022/08/19 05:37:04;;;;;;;22.93;20.63;;;;;;;22.18;70.40;100870.22;4978821;28;20187;-69
2022/08/19 05:39:33;;;;;;;25.80;18.13;;;;;;;21.99;70.59;100875.31;4980884;28;20195;-68
2022/08/19 05:42:01;;;;;;;20.57;18.23;;;;;;;21.74;71.83;100877.97;4965747;28;20430;-68
2022/08/19 05:44:33;;;;;;;25.07;17.57;;;;;;;22.17;70.23;100864.97;4982293;28;20562;-68
2022/08/19 05:46:59;;;;;;;24.93;18.33;;;;;;;22.24;69.49;100870.91;4982377;28;20415;-69
2022/08/19 05:49:25;;;;;;;23.43;16.37;;;;;;;22.43;69.98;100868.47;4982769;28;20515;-69
2022/08/19 05:51:51;;;;;;;23.93;17.77;;;;;;;22.34;69.57;100869.66;4967349;28;20518;-68
2022/08/19 05:54:17;;;;;;;21.57;17.50;;;;;;;22.03;70.54;100862.81;4984578;28;20434;-69
2022/08/19 05:56:43;;;;;;;23.10;18.57;;;;;;;22.19;70.16;100866.63;4966965;28;20181;-69
2022/08/19 05:59:11;;;;;;;20.47;16.57;;;;;;;22.09;70.19;100865.22;4983389;28;20419;-69
2022/08/19 06:01:37;;;;;;;22.33;17.43;;;;;;;21.91;70.61;100860.59;4982474;28;20663;-69
2022/08/19 06:04:03;;;;;;;23.43;16.70;;;;;;;21.89;71.37;100859.78;4982413;28;20455;-70
2022/08/19 06:06:29;;;;;;;19.13;16.37;;;;;;;21.59;71.31;100857.28;4965592;28;20652;-69
2022/08/19 06:08:54;;;;;;;25.80;17.50;;;;;;;21.57;71.85;100853.81;4981998;28;20511;-69
2022/08/19 06:11:34;;;;;;;21.03;16.30;;;;;;;22.16;70.97;100857.91;4981919;28;20255;-70
2022/08/19 06:14:07;;;;;;;20.10;14.87;;;;;;;22.38;69.96;100852.72;4982046;28;20172;-70
2022/08/19 06:16:34;;;;;;;20.13;16.20;;;;;;;22.69;67.91;100856.81;4981713;28;20473;-68
2022/08/19 06:19:01;;;;;;;17.80;15.90;;;;;;;22.09;70.52;100862.56;4982011;28;20450;-69
2022/08/19 06:21:28;;;;;;;19.57;14.83;;;;;;;21.71;71.94;100864.81;4981288;28;20466;-70
2022/08/19 06:23:54;;;;;;;22.03;16.20;;;;;;;22.12;69.58;100865.13;4982269;28;20423;-70
2022/08/19 06:26:20;;;;;;;25.20;18.80;;;;;;;22.04;70.56;100869.84;4982169;28;20821;-69
2022/08/19 06:28:47;;;;;;;22.77;14.47;;;;;;;22.11;71.02;100868.72;4981858;28;20412;-69
2022/08/19 06:31:14;;;;;;;25.23;15.37;;;;;;;22.11;70.35;100865.16;4982030;28;20222;-74
2022/08/19 06:33:40;;;;;;;21.23;17.23;;;;;;;22.31;69.82;100861.78;4979387;28;20482;-71
2022/08/19 06:36:06;;;;;;;19.60;17.37;;;;;;;21.84;70.83;100871.44;4981248;28;20500;-72
2022/08/19 06:38:33;;;;;;;22.87;17.67;;;;;;;21.43;72.67;100867.50;4981762;28;20505;-70
2022/08/19 06:41:05;;;;;;;26.90;18.23;;;;;;;21.99;70.85;100871.81;4981333;28;20180;-70
2022/08/19 06:43:30;;;;;;;21.63;17.07;;;;;;;21.64;72.87;100863.31;4981392;28;20434;-71
2022/08/19 06:45:56;;;;;;;20.17;17.87;;;;;;;22.12;69.96;100859.81;4981451;28;20720;-72
2022/08/19 06:48:21;;;;;;;21.70;17.07;;;;;;;21.60;71.82;100861.69;4981401;28;20176;-72
2022/08/19 06:50:51;;;;;;;42.00;17.93;;;;;;;21.97;71.20;100853.25;4980816;28;20193;-72
2022/08/19 06:53:18;;;;;;;18.10;14.60;;;;;;;21.81;70.72;100858.28;4981644;28;20235;-73
2022/08/19 06:55:44;;;;;;;17.40;14.43;;;;;;;22.10;70.03;100859.00;4981229;28;20420;-72
2022/08/19 06:58:10;;;;;;;18.43;15.30;;;;;;;21.75;71.88;100862.94;4981225;28;20423;-70
2022/08/19 07:00:36;;;;;;;22.50;15.13;;;;;;;22.02;70.50;100866.38;4981681;28;20504;-70
2022/08/19 07:03:02;;;;;;;17.30;13.60;;;;;;;22.45;69.77;100856.00;4980936;28;20576;-70
2022/08/19 07:05:27;;;;;;;16.70;14.50;;;;;;;22.27;69.24;100860.16;4980757;28;20554;-70
2022/08/19 07:07:53;;;;;;;15.53;13.40;;;;;;;21.84;70.62;100862.63;4981274;28;20187;-72
2022/08/19 07:10:19;;;;;;;12.83;11.40;;;;;;;22.28;69.06;100851.28;4980811;28;20259;-71
2022/08/19 07:12:44;;;;;;;15.90;11.13;;;;;;;21.99;70.06;100864.69;4980846;28;20172;-74
2022/08/19 07:15:10;;;;;;;12.43;10.60;;;;;;;22.45;68.74;100862.16;4981029;28;20172;-74
2022/08/19 07:17:38;;;;;;;18.80;10.90;;;;;;;21.88;70.75;100861.56;4980566;28;20248;-71
2022/08/19 07:20:06;;;;;;;13.53;10.30;;;;;;;22.66;67.89;100862.25;4947867;28;20493;-72
2022/08/19 07:22:35;;;;;;;16.30;12.10;;;;;;;22.57;68.48;100851.97;4981214;28;20426;-73
2022/08/19 07:25:03;;;;;;;14.93;11.60;;;;;;;22.59;67.64;100856.31;4980274;28;20463;-74
2022/08/19 07:27:29;;;;;;;15.53;12.70;;;;;;;22.71;66.55;100857.63;4980841;28;20442;-74
2022/08/19 07:29:54;;;;;;;11.57;10.47;;;;;;;22.62;66.45;100858.84;4981051;28;20411;-74
2022/08/19 07:32:20;;;;;;;13.47;10.50;;;;;;;23.26;65.57;100864.34;4980441;28;20258;-74
2022/08/19 07:34:45;;;;;;;14.67;12.30;;;;;;;23.28;64.57;100871.31;4980157;28;20286;-75
2022/08/19 07:37:11;;;;;;;12.63;11.30;;;;;;;22.74;66.34;100878.75;4980983;28;20247;-74
2022/08/19 07:39:38;;;;;;;17.20;12.87;;;;;;;22.79;66.29;100883.91;4980385;28;20415;-74
2022/08/19 07:42:07;;;;;;;11.07;10.03;;;;;;;22.69;66.79;100888.69;4980202;28;20463;-75
2022/08/19 07:44:33;;;;;;;12.50;9.63;;;;;;;22.61;66.21;100885.47;4980464;28;20459;-75
2022/08/19 07:47:00;;;;;;;11.33;7.87;;;;;;;22.99;65.58;100885.78;4980076;28;20867;-74
2022/08/19 07:49:26;;;;;;;9.60;8.63;;;;;;;23.27;65.18;100892.66;4980026;28;20420;-75
2022/08/19 07:51:57;;;;;;;10.50;8.63;;;;;;;22.96;65.20;100900.06;4980445;28;20416;-71
2022/08/19 07:54:25;;;;;;;10.30;9.10;;;;;;;22.53;66.29;100899.09;4980033;28;20171;-68
2022/08/19 07:56:50;;;;;;;9.90;8.93;;;;;;;22.93;65.01;100904.63;4979704;28;20439;-68
2022/08/19 07:59:17;;;;;;;10.23;9.07;;;;;;;22.79;65.44;100900.72;4980052;28;20416;-69
2022/08/19 08:01:44;;;;;;;9.30;8.40;;;;;;;23.57;63.51;100906.50;4979064;28;20275;-69
2022/08/19 08:09:39;;;;;;;10.80;7.47;;;;;;;23.04;64.39;100921.03;4979672;28;20442;-68
2022/08/19 08:12:07;;;;;;;8.50;7.27;;;;;;;23.27;63.83;100920.13;4979517;28;20514;-68
2022/08/19 08:14:35;;;;;;;11.03;9.37;;;;;;;23.00;65.25;100924.72;4979777;28;20702;-68
2022/08/19 08:17:01;;;;;;;8.43;7.63;;;;;;;24.30;61.13;100925.56;4962756;28;20490;-66
2022/08/19 08:19:28;;;;;;;10.80;9.70;;;;;;;24.51;60.45;100915.72;4979615;28;20809;-67
2022/08/19 08:21:56;;;;;;;10.97;9.87;;;;;;;23.41;62.89;100922.25;4979963;28;20447;-68
2022/08/19 08:24:22;;;;;;;16.23;9.60;;;;;;;23.51;63.15;100922.72;4979490;28;20482;-69
2022/08/19 08:26:47;;;;;;;10.07;9.17;;;;;;;23.65;62.19;100930.13;4962540;28;20420;-69
2022/08/19 08:29:15;;;;;;;8.83;8.00;;;;;;;24.58;59.81;100926.94;4980129;28;20530;-69
2022/08/19 08:31:42;;;;;;;13.77;11.80;;;;;;;23.26;63.30;100928.16;4979490;28;20183;-69
2022/08/19 08:34:08;;;;;;;12.27;10.97;;;;;;;22.86;64.61;100936.75;4979608;28;20486;-69
2022/08/19 08:36:41;;;;;;;13.60;12.00;;;;;;;22.82;65.36;100931.63;4980017;28;20681;-70
2022/08/19 08:39:11;;;;;;;11.07;9.97;;;;;;;22.91;65.23;100938.38;4979400;28;20745;-69
2022/08/19 08:41:48;;;;;;;16.57;11.87;;;;;;;22.66;65.93;100936.66;4979419;28;20419;-69
2022/08/19 08:44:18;;;;;;;11.97;9.90;;;;;;;23.49;64.28;100922.78;4979505;28;20459;-69
2022/08/19 08:46:49;;;;;;;14.07;12.23;;;;;;;23.73;62.62;100925.34;4962584;28;20420;-69
2022/08/19 08:49:27;;;;;;;13.10;11.80;;;;;;;22.95;65.02;100932.91;4979539;28;20451;-69
2022/08/19 08:52:00;;;;;;;13.03;11.30;;;;;;;23.26;64.42;100933.50;4962537;28;20492;-69
2022/08/19 08:54:38;;;;;;;17.57;13.57;;;;;;;23.04;64.29;100942.28;4962835;28;20404;-71
2022/08/19 08:57:10;;;;;;;15.47;12.20;;;;;;;23.31;64.40;100939.50;4962628;28;20426;-70
2022/08/19 08:59:40;;;;;;;12.40;10.97;;;;;;;24.29;61.69;100936.25;4962644;28;20413;-70
2022/08/19 09:02:05;;;;;;;21.57;13.53;;;;;;;23.98;61.47;100932.31;4962521;28;20424;-70
2022/08/19 09:04:31;;;;;;;17.70;13.10;;;;;;;24.01;61.92;100932.19;4979078;28;20467;-70
2022/08/19 09:07:21;;;;;;;16.07;14.37;;;;;;;24.16;62.08;100933.28;4979051;28;20262;-71
2022/08/19 09:09:50;;;;;;;14.73;12.40;;;;;;;23.57;63.26;100941.09;4979445;28;20164;-70
2022/08/19 09:12:57;;;;;;;16.27;13.10;;;;;;;23.89;62.04;100925.56;4979102;28;20412;-69
2022/08/19 09:15:29;;;;;;;13.87;12.47;;;;;;;23.41;63.74;100943.53;4966226;28;20423;-69
2022/08/19 09:18:00;;;;;;;10.53;9.43;;;;;;;24.54;61.29;100928.91;4966427;28;20431;-69
2022/08/19 09:20:25;;;;;;;14.87;11.13;;;;;;;23.88;62.49;100947.78;4983041;28;20447;-68
2022/08/19 09:22:50;;;;;;;13.60;11.67;;;;;;;24.04;61.46;100935.59;4982976;28;20407;-72
2022/08/19 09:25:21;;;;;;;14.70;11.30;;;;;;;23.93;61.65;100939.63;4983531;28;20456;-72
2022/08/19 09:27:48;;;;;;;15.63;10.43;;;;;;;24.06;61.38;100946.16;4982917;28;20184;-70
2022/08/19 09:30:26;;;;;;;13.73;10.83;;;;;;;23.54;62.85;100941.22;4966228;28;20563;-71
2022/08/19 09:32:54;;;;;;;14.00;11.20;;;;;;;23.10;64.39;100942.06;4965965;28;20474;-72
2022/08/19 09:35:22;;;;;;;11.60;9.73;;;;;;;23.92;61.84;100933.41;4982588;28;20685;-72
2022/08/19 09:37:49;;;;;;;12.33;11.03;;;;;;;23.72;62.78;100931.59;4982474;28;20430;-71
2022/08/19 09:40:15;;;;;;;14.60;11.40;;;;;;;23.97;61.81;100925.25;4982574;28;20435;-71
2022/08/19 09:42:43;;;;;;;16.43;13.77;;;;;;;24.51;60.17;100934.38;4983290;28;20483;-73
2022/08/19 09:45:09;;;;;;;14.90;13.37;;;;;;;24.20;60.57;100926.91;4982344;28;20455;-70
2022/08/19 09:47:37;;;;;;;14.90;12.33;;;;;;;24.00;61.06;100928.66;4982624;28;20416;-72
2022/08/19 09:50:05;;;;;;;16.20;14.50;;;;;;;23.95;61.86;100929.75;4966441;28;20502;-71
2022/08/19 09:52:30;;;;;;;14.23;11.90;;;;;;;24.48;60.55;100928.34;4982385;28;20547;-69
2022/08/19 09:54:56;;;;;;;12.80;11.50;;;;;;;24.27;61.33;100931.00;4965468;28;20506;-70
2022/08/19 09:57:21;;;;;;;11.33;10.23;;;;;;;24.24;62.08;100933.81;4982572;28;20180;-69
2022/08/19 09:59:47;;;;;;;13.30;10.33;;;;;;;23.92;62.21;100929.91;4981991;28;20187;-71
2022/08/19 10:02:13;;;;;;;13.57;11.70;;;;;;;23.96;61.79;100943.00;4982247;28;20319;-72
2022/08/19 10:07:43;;;;;;;14.50;13.00;;;;;;;24.37;61.29;100936.81;4923296;29;20459;-71
2022/08/19 10:10:09;;;;;;;20.03;12.60;;;;;;;23.89;62.76;100933.56;4923240;29;20449;-69
2022/08/19 10:12:35;;;;;;;19.90;13.77;;;;;;;23.66;63.72;100937.19;4934294;28;20192;-70
2022/08/19 10:15:01;;;;;;;15.53;13.20;;;;;;;23.38;64.83;100936.53;4981614;28;20818;-67
2022/08/19 10:17:27;;;;;;;17.00;11.80;;;;;;;24.42;61.45;100942.78;4981714;28;20231;-70
2022/08/19 10:19:52;;;;;;;17.10;15.30;;;;;;;23.93;62.53;100937.81;4982173;28;20597;-69
2022/08/19 10:22:18;;;;;;;12.93;11.27;;;;;;;24.63;60.86;100942.78;4982558;28;20415;-69
2022/08/19 10:24:45;;;;;;;16.20;14.50;;;;;;;24.77;60.34;100940.31;4980933;28;20211;-70
2022/08/19 10:27:12;;;;;;;16.90;14.43;;;;;;;24.61;61.17;100950.78;4981711;28;20419;-71
2022/08/19 10:29:37;;;;;;;15.97;14.47;;;;;;;24.10;62.04;100938.88;4982569;28;20473;-69
2022/08/19 10:32:08;;;;;;;14.90;13.40;;;;;;;24.46;61.80;100940.84;4981856;28;20518;-70
2022/08/19 10:34:35;;;;;;;13.27;10.07;;;;;;;24.10;62.86;100939.75;4981695;28;20650;-70
2022/08/19 10:37:00;;;;;;;14.93;13.50;;;;;;;23.55;64.73;100937.63;4978869;28;20423;-70
2022/08/19 10:39:28;;;;;;;12.93;11.60;;;;;;;24.34;62.86;100939.59;4980882;28;20483;-72
2022/08/19 10:41:53;;;;;;;14.97;13.57;;;;;;;24.42;62.38;100940.09;4981441;28;20437;-74
2022/08/19 10:44:20;;;;;;;17.60;14.57;;;;;;;23.79;64.06;100946.38;4981344;28;20459;-70
2022/08/19 10:46:46;;;;;;;13.10;11.00;;;;;;;24.30;62.55;100941.56;4980893;28;20176;-70
2022/08/19 10:49:12;;;;;;;19.47;15.00;;;;;;;23.63;65.86;100940.84;4981163;28;20412;-71
2022/08/19 10:56:50;;;;;;;20.20;17.40;;;;;;;23.11;67.21;100940.25;4981285;28;20496;-71
2022/08/19 10:57:09;;;;;;;19.70;17.20;;;;;;;23.54;66.14;100942.09;4994051;28;20424;-70
2022/08/19 10:59:35;;;;;;;19.93;17.83;;;;;;;23.53;65.90;100940.34;4981269;28;20420;-70
2022/08/19 11:02:02;;;;;;;19.63;16.53;;;;;;;23.54;66.31;100933.22;4981155;28;20172;-71
2022/08/19 11:04:27;;;;;;;25.30;18.63;;;;;;;23.65;65.85;100932.78;4980008;28;20468;-70
2022/08/19 11:06:53;;;;;;;19.03;17.03;;;;;;;23.76;65.10;100925.22;4980809;28;20704;-71
2022/08/19 11:09:21;;;;;;;17.87;16.17;;;;;;;23.94;65.06;100928.06;4981173;28;20199;-71
2022/08/19 11:11:47;;;;;;;18.23;15.30;;;;;;;24.00;64.46;100928.66;4980923;28;20176;-73
2022/08/19 11:14:18;;;;;;;18.20;15.47;;;;;;;23.54;65.49;100935.88;4980914;28;20419;-71
2022/08/19 11:16:43;;;;;;;16.93;14.33;;;;;;;24.28;63.81;100926.56;4990723;28;20529;-71
2022/08/19 11:19:10;;;;;;;19.30;17.20;;;;;;;24.69;62.58;100929.16;4983218;28;20411;-72
2022/08/19 11:21:41;;;;;;;17.47;15.67;;;;;;;24.88;61.13;100923.81;4999405;28;20198;-72
2022/08/19 11:24:10;;;;;;;16.57;14.97;;;;;;;25.58;60.05;100925.84;4982923;28;20454;-70
2022/08/19 11:26:37;;;;;;;18.50;16.60;;;;;;;25.67;59.14;100934.22;4999777;28;20465;-70
2022/08/19 11:29:03;;;;;;;16.37;13.87;;;;;;;25.37;59.15;100933.94;4982993;28;20497;-69